sensor_id;sensor_type;location;lat;lon;timestamp;P1;durP1;ratioP1;P2;durP2;ratioP2
18338;SDS011;9295;44.484;11.240;2023-12-04T00:00:18;13.47;;;6.20;;
18338;SDS011;9295;44.484;11.240;2023-12-04T00:02:47;10.60;;;5.80;;
18338;SDS011;9295;44.484;11.240;2023-12-04T00:05:17;9.27;;;5.40;;
18338;SDS011;9295;44.484;11.240;2023-12-04T00:07:45;9.27;;;5.90;;
18338;SDS011;9295;44.484;11.240;2023-12-04T00:10:14;9.83;;;5.83;;
18338;SDS011;9295;44.484;11.240;2023-12-04T00:12:43;8.37;;;5.43;;
18338;SDS011;9295;44.484;11.240;2023-12-04T00:15:11;12.93;;;5.80;;
18338;SDS011;9295;44.484;11.240;2023-12-04T00:17:40;11.93;;;5.67;;
18338;SDS011;9295;44.484;11.240;2023-12-04T00:20:09;8.03;;;5.23;;
18338;SDS011;9295;44.484;11.240;2023-12-04T00:22:39;11.43;;;5.37;;
18338;SDS011;9295;44.484;11.240;2023-12-04T00:25:08;7.50;;;4.47;;
18338;SDS011;9295;44.484;11.240;2023-12-04T00:27:37;11.23;;;5.10;;
18338;SDS011;9295;44.484;11.240;2023-12-04T00:30:06;12.60;;;6.50;;
18338;SDS011;9295;44.484;11.240;2023-12-04T00:32:37;8.10;;;5.20;;
18338;SDS011;9295;44.484;11.240;2023-12-04T00:35:05;10.57;;;5.87;;
18338;SDS011;9295;44.484;11.240;2023-12-04T00:37:34;14.23;;;5.87;;
18338;SDS011;9295;44.484;11.240;2023-12-04T00:40:09;15.93;;;6.93;;
18338;SDS011;9295;44.484;11.240;2023-12-04T00:42:39;15.00;;;6.60;;
18338;SDS011;9295;44.484;11.240;2023-12-04T00:45:08;11.70;;;6.20;;
18338;SDS011;9295;44.484;11.240;2023-12-04T00:47:37;11.33;;;6.03;;
18338;SDS011;9295;44.484;11.240;2023-12-04T00:50:05;11.30;;;6.67;;
18338;SDS011;9295;44.484;11.240;2023-12-04T00:52:34;11.50;;;5.90;;
18338;SDS011;9295;44.484;11.240;2023-12-04T00:55:03;12.53;;;6.50;;
18338;SDS011;9295;44.484;11.240;2023-12-04T00:57:33;12.40;;;6.83;;
18338;SDS011;9295;44.484;11.240;2023-12-04T01:00:02;15.07;;;5.73;;
18338;SDS011;9295;44.484;11.240;2023-12-04T01:02:33;11.17;;;6.00;;
18338;SDS011;9295;44.484;11.240;2023-12-04T01:05:02;12.60;;;6.67;;
18338;SDS011;9295;44.484;11.240;2023-12-04T01:07:31;13.30;;;6.63;;
18338;SDS011;9295;44.484;11.240;2023-12-04T01:10:00;12.80;;;6.43;;
18338;SDS011;9295;44.484;11.240;2023-12-04T01:12:31;10.70;;;5.67;;
18338;SDS011;9295;44.484;11.240;2023-12-04T01:15:02;11.83;;;6.43;;
18338;SDS011;9295;44.484;11.240;2023-12-04T01:17:31;15.33;;;6.37;;
18338;SDS011;9295;44.484;11.240;2023-12-04T01:20:02;12.83;;;6.70;;
18338;SDS011;9295;44.484;11.240;2023-12-04T01:22:31;10.50;;;6.37;;
18338;SDS011;9295;44.484;11.240;2023-12-04T01:25:00;14.63;;;6.67;;
18338;SDS011;9295;44.484;11.240;2023-12-04T01:27:33;10.53;;;5.80;;
18338;SDS011;9295;44.484;11.240;2023-12-04T01:30:05;13.10;;;5.93;;
18338;SDS011;9295;44.484;11.240;2023-12-04T01:32:37;11.73;;;5.73;;
18338;SDS011;9295;44.484;11.240;2023-12-04T01:35:05;7.90;;;5.40;;
18338;SDS011;9295;44.484;11.240;2023-12-04T01:37:34;17.30;;;5.97;;
18338;SDS011;9295;44.484;11.240;2023-12-04T01:40:05;11.63;;;6.10;;
18338;SDS011;9295;44.484;11.240;2023-12-04T01:42:36;9.57;;;6.03;;
18338;SDS011;9295;44.484;11.240;2023-12-04T01:45:05;9.90;;;6.03;;
18338;SDS011;9295;44.484;11.240;2023-12-04T01:47:36;12.20;;;5.80;;
18338;SDS011;9295;44.484;11.240;2023-12-04T01:50:05;14.37;;;7.30;;
18338;SDS011;9295;44.484;11.240;2023-12-04T01:52:38;11.87;;;6.90;;
18338;SDS011;9295;44.484;11.240;2023-12-04T01:55:08;16.13;;;6.20;;
18338;SDS011;9295;44.484;11.240;2023-12-04T01:57:39;9.73;;;5.60;;
18338;SDS011;9295;44.484;11.240;2023-12-04T02:00:08;15.60;;;5.70;;
18338;SDS011;9295;44.484;11.240;2023-12-04T02:02:39;11.87;;;6.37;;
18338;SDS011;9295;44.484;11.240;2023-12-04T02:05:09;9.93;;;5.93;;
18338;SDS011;9295;44.484;11.240;2023-12-04T02:07:40;12.00;;;5.80;;
18338;SDS011;9295;44.484;11.240;2023-12-04T02:10:09;15.50;;;5.20;;
18338;SDS011;9295;44.484;11.240;2023-12-04T02:12:41;9.93;;;5.80;;
18338;SDS011;9295;44.484;11.240;2023-12-04T02:15:10;10.57;;;6.00;;
18338;SDS011;9295;44.484;11.240;2023-12-04T02:17:38;9.27;;;6.20;;
18338;SDS011;9295;44.484;11.240;2023-12-04T02:20:07;15.17;;;8.10;;
18338;SDS011;9295;44.484;11.240;2023-12-04T02:22:37;13.40;;;6.10;;
18338;SDS011;9295;44.484;11.240;2023-12-04T02:25:07;14.30;;;8.77;;
18338;SDS011;9295;44.484;11.240;2023-12-04T02:27:56;11.80;;;6.47;;
18338;SDS011;9295;44.484;11.240;2023-12-04T02:30:28;10.57;;;6.57;;
18338;SDS011;9295;44.484;11.240;2023-12-04T02:33:03;13.20;;;7.73;;
18338;SDS011;9295;44.484;11.240;2023-12-04T02:35:35;13.40;;;8.97;;
18338;SDS011;9295;44.484;11.240;2023-12-04T02:38:05;13.67;;;7.43;;
18338;SDS011;9295;44.484;11.240;2023-12-04T02:40:36;7.93;;;5.17;;
18338;SDS011;9295;44.484;11.240;2023-12-04T02:43:05;9.77;;;5.60;;
18338;SDS011;9295;44.484;11.240;2023-12-04T02:45:34;9.50;;;5.37;;
18338;SDS011;9295;44.484;11.240;2023-12-04T02:48:03;8.20;;;5.50;;
18338;SDS011;9295;44.484;11.240;2023-12-04T02:50:32;8.27;;;4.83;;
18338;SDS011;9295;44.484;11.240;2023-12-04T02:53:01;9.83;;;6.00;;
18338;SDS011;9295;44.484;11.240;2023-12-04T02:55:29;11.30;;;6.20;;
18338;SDS011;9295;44.484;11.240;2023-12-04T02:57:59;8.40;;;4.70;;
18338;SDS011;9295;44.484;11.240;2023-12-04T03:00:28;8.47;;;4.73;;
18338;SDS011;9295;44.484;11.240;2023-12-04T03:02:56;7.53;;;4.30;;
18338;SDS011;9295;44.484;11.240;2023-12-04T03:05:25;8.00;;;5.20;;
18338;SDS011;9295;44.484;11.240;2023-12-04T03:07:54;7.87;;;4.70;;
18338;SDS011;9295;44.484;11.240;2023-12-04T03:10:23;7.33;;;4.60;;
18338;SDS011;9295;44.484;11.240;2023-12-04T03:12:51;6.90;;;4.57;;
18338;SDS011;9295;44.484;11.240;2023-12-04T03:15:21;10.30;;;5.80;;
18338;SDS011;9295;44.484;11.240;2023-12-04T03:17:50;8.10;;;4.87;;
18338;SDS011;9295;44.484;11.240;2023-12-04T03:20:18;11.73;;;4.50;;
18338;SDS011;9295;44.484;11.240;2023-12-04T03:22:47;6.67;;;4.50;;
18338;SDS011;9295;44.484;11.240;2023-12-04T03:25:16;7.93;;;4.70;;
18338;SDS011;9295;44.484;11.240;2023-12-04T03:27:44;6.87;;;4.53;;
18338;SDS011;9295;44.484;11.240;2023-12-04T03:30:13;9.97;;;4.50;;
18338;SDS011;9295;44.484;11.240;2023-12-04T03:32:43;9.73;;;5.22;;
18338;SDS011;9295;44.484;11.240;2023-12-04T03:35:12;7.90;;;4.63;;
18338;SDS011;9295;44.484;11.240;2023-12-04T03:37:40;9.20;;;5.40;;
18338;SDS011;9295;44.484;11.240;2023-12-04T03:40:09;7.50;;;4.20;;
18338;SDS011;9295;44.484;11.240;2023-12-04T03:42:38;8.87;;;4.60;;
18338;SDS011;9295;44.484;11.240;2023-12-04T03:45:08;11.40;;;5.77;;
18338;SDS011;9295;44.484;11.240;2023-12-04T03:47:37;8.63;;;5.57;;
18338;SDS011;9295;44.484;11.240;2023-12-04T03:50:07;8.20;;;4.97;;
18338;SDS011;9295;44.484;11.240;2023-12-04T03:52:36;7.82;;;4.97;;
18338;SDS011;9295;44.484;11.240;2023-12-04T03:55:05;11.20;;;5.10;;
18338;SDS011;9295;44.484;11.240;2023-12-04T03:57:37;9.23;;;4.80;;
18338;SDS011;9295;44.484;11.240;2023-12-04T04:00:06;8.07;;;4.73;;
18338;SDS011;9295;44.484;11.240;2023-12-04T04:02:39;11.07;;;5.00;;
18338;SDS011;9295;44.484;11.240;2023-12-04T04:05:13;10.55;;;4.57;;
18338;SDS011;9295;44.484;11.240;2023-12-04T04:07:42;7.70;;;4.50;;
18338;SDS011;9295;44.484;11.240;2023-12-04T04:10:11;10.17;;;3.90;;
18338;SDS011;9295;44.484;11.240;2023-12-04T04:12:40;7.00;;;4.00;;
18338;SDS011;9295;44.484;11.240;2023-12-04T04:15:08;8.05;;;4.32;;
18338;SDS011;9295;44.484;11.240;2023-12-04T04:17:37;10.10;;;4.65;;
18338;SDS011;9295;44.484;11.240;2023-12-04T04:20:06;7.00;;;4.00;;
18338;SDS011;9295;44.484;11.240;2023-12-04T04:22:38;6.53;;;4.23;;
18338;SDS011;9295;44.484;11.240;2023-12-04T04:25:07;7.00;;;4.50;;
18338;SDS011;9295;44.484;11.240;2023-12-04T04:27:38;7.43;;;5.10;;
18338;SDS011;9295;44.484;11.240;2023-12-04T04:30:06;6.73;;;4.10;;
18338;SDS011;9295;44.484;11.240;2023-12-04T04:32:36;6.83;;;4.57;;
18338;SDS011;9295;44.484;11.240;2023-12-04T04:35:05;8.17;;;4.40;;
18338;SDS011;9295;44.484;11.240;2023-12-04T04:37:34;8.80;;;4.87;;
18338;SDS011;9295;44.484;11.240;2023-12-04T04:40:05;10.27;;;5.43;;
18338;SDS011;9295;44.484;11.240;2023-12-04T04:42:37;7.67;;;4.77;;
18338;SDS011;9295;44.484;11.240;2023-12-04T04:45:06;8.57;;;4.90;;
18338;SDS011;9295;44.484;11.240;2023-12-04T04:47:35;6.80;;;4.40;;
18338;SDS011;9295;44.484;11.240;2023-12-04T04:50:04;7.35;;;5.00;;
18338;SDS011;9295;44.484;11.240;2023-12-04T04:52:33;6.70;;;4.47;;
18338;SDS011;9295;44.484;11.240;2023-12-04T04:55:01;7.20;;;4.30;;
18338;SDS011;9295;44.484;11.240;2023-12-04T04:57:35;7.30;;;4.73;;
18338;SDS011;9295;44.484;11.240;2023-12-04T05:00:04;9.50;;;5.03;;
18338;SDS011;9295;44.484;11.240;2023-12-04T05:02:33;9.90;;;4.90;;
18338;SDS011;9295;44.484;11.240;2023-12-04T05:05:02;7.90;;;4.93;;
18338;SDS011;9295;44.484;11.240;2023-12-04T05:07:31;7.00;;;4.47;;
18338;SDS011;9295;44.484;11.240;2023-12-04T05:10:00;7.53;;;4.50;;
18338;SDS011;9295;44.484;11.240;2023-12-04T05:12:34;6.57;;;4.30;;
18338;SDS011;9295;44.484;11.240;2023-12-04T05:15:03;7.33;;;4.30;;
18338;SDS011;9295;44.484;11.240;2023-12-04T05:17:32;7.27;;;4.37;;
18338;SDS011;9295;44.484;11.240;2023-12-04T05:20:00;9.43;;;4.70;;
18338;SDS011;9295;44.484;11.240;2023-12-04T05:22:29;10.47;;;4.70;;
18338;SDS011;9295;44.484;11.240;2023-12-04T05:24:58;9.27;;;4.70;;
18338;SDS011;9295;44.484;11.240;2023-12-04T05:27:27;6.67;;;4.23;;
18338;SDS011;9295;44.484;11.240;2023-12-04T05:29:57;6.27;;;4.53;;
18338;SDS011;9295;44.484;11.240;2023-12-04T05:32:25;7.10;;;4.40;;
18338;SDS011;9295;44.484;11.240;2023-12-04T05:34:54;6.60;;;4.10;;
18338;SDS011;9295;44.484;11.240;2023-12-04T05:37:23;7.47;;;4.80;;
18338;SDS011;9295;44.484;11.240;2023-12-04T05:39:51;9.13;;;5.33;;
18338;SDS011;9295;44.484;11.240;2023-12-04T05:42:20;8.17;;;5.43;;
18338;SDS011;9295;44.484;11.240;2023-12-04T05:44:48;8.43;;;5.30;;
18338;SDS011;9295;44.484;11.240;2023-12-04T05:47:18;9.80;;;5.70;;
18338;SDS011;9295;44.484;11.240;2023-12-04T05:49:47;8.57;;;5.43;;
18338;SDS011;9295;44.484;11.240;2023-12-04T05:52:15;9.33;;;5.50;;
18338;SDS011;9295;44.484;11.240;2023-12-04T05:54:44;10.60;;;5.13;;
18338;SDS011;9295;44.484;11.240;2023-12-04T05:57:12;10.17;;;4.90;;
18338;SDS011;9295;44.484;11.240;2023-12-04T05:59:45;8.33;;;4.70;;
18338;SDS011;9295;44.484;11.240;2023-12-04T06:02:13;10.80;;;4.87;;
18338;SDS011;9295;44.484;11.240;2023-12-04T06:04:45;7.33;;;5.00;;
18338;SDS011;9295;44.484;11.240;2023-12-04T06:07:13;9.43;;;5.33;;
18338;SDS011;9295;44.484;11.240;2023-12-04T06:09:43;9.40;;;4.93;;
18338;SDS011;9295;44.484;11.240;2023-12-04T06:12:12;6.90;;;4.70;;
18338;SDS011;9295;44.484;11.240;2023-12-04T06:14:41;8.40;;;5.30;;
18338;SDS011;9295;44.484;11.240;2023-12-04T06:17:09;6.63;;;4.53;;
18338;SDS011;9295;44.484;11.240;2023-12-04T06:19:38;8.87;;;4.50;;
18338;SDS011;9295;44.484;11.240;2023-12-04T06:22:09;9.27;;;4.90;;
18338;SDS011;9295;44.484;11.240;2023-12-04T06:24:41;9.50;;;5.20;;
18338;SDS011;9295;44.484;11.240;2023-12-04T06:27:10;7.03;;;4.80;;
18338;SDS011;9295;44.484;11.240;2023-12-04T06:29:46;8.83;;;5.30;;
18338;SDS011;9295;44.484;11.240;2023-12-04T06:32:19;10.30;;;5.10;;
18338;SDS011;9295;44.484;11.240;2023-12-04T06:34:55;7.07;;;4.40;;
18338;SDS011;9295;44.484;11.240;2023-12-04T06:37:27;8.97;;;5.40;;
18338;SDS011;9295;44.484;11.240;2023-12-04T06:40:01;8.33;;;5.20;;
18338;SDS011;9295;44.484;11.240;2023-12-04T06:42:32;9.33;;;5.20;;
18338;SDS011;9295;44.484;11.240;2023-12-04T06:45:01;9.97;;;5.67;;
18338;SDS011;9295;44.484;11.240;2023-12-04T06:47:31;9.17;;;5.63;;
18338;SDS011;9295;44.484;11.240;2023-12-04T06:50:02;8.90;;;4.90;;
18338;SDS011;9295;44.484;11.240;2023-12-04T06:52:33;8.23;;;5.30;;
18338;SDS011;9295;44.484;11.240;2023-12-04T06:55:02;10.33;;;5.47;;
18338;SDS011;9295;44.484;11.240;2023-12-04T06:57:33;11.60;;;5.27;;
18338;SDS011;9295;44.484;11.240;2023-12-04T07:00:09;11.80;;;5.40;;
18338;SDS011;9295;44.484;11.240;2023-12-04T07:02:49;7.30;;;4.40;;
18338;SDS011;9295;44.484;11.240;2023-12-04T07:05:20;12.13;;;5.60;;
18338;SDS011;9295;44.484;11.240;2023-12-04T07:07:51;14.60;;;5.80;;
18338;SDS011;9295;44.484;11.240;2023-12-04T07:10:22;9.50;;;5.30;;
18338;SDS011;9295;44.484;11.240;2023-12-04T07:12:56;9.47;;;5.40;;
18338;SDS011;9295;44.484;11.240;2023-12-04T07:15:29;11.20;;;5.50;;
18338;SDS011;9295;44.484;11.240;2023-12-04T07:17:57;10.00;;;5.50;;
18338;SDS011;9295;44.484;11.240;2023-12-04T07:20:26;15.60;;;5.77;;
18338;SDS011;9295;44.484;11.240;2023-12-04T07:22:56;17.30;;;6.17;;
18338;SDS011;9295;44.484;11.240;2023-12-04T07:25:26;16.43;;;8.07;;
18338;SDS011;9295;44.484;11.240;2023-12-04T07:27:55;15.00;;;8.07;;
18338;SDS011;9295;44.484;11.240;2023-12-04T07:30:24;17.03;;;8.33;;
18338;SDS011;9295;44.484;11.240;2023-12-04T07:32:53;14.30;;;7.53;;
18338;SDS011;9295;44.484;11.240;2023-12-04T07:35:22;16.73;;;7.30;;
18338;SDS011;9295;44.484;11.240;2023-12-04T07:37:53;17.50;;;7.30;;
18338;SDS011;9295;44.484;11.240;2023-12-04T07:40:23;17.57;;;8.57;;
18338;SDS011;9295;44.484;11.240;2023-12-04T07:42:51;14.87;;;8.93;;
18338;SDS011;9295;44.484;11.240;2023-12-04T07:45:20;18.63;;;10.77;;
18338;SDS011;9295;44.484;11.240;2023-12-04T07:47:50;17.43;;;12.50;;
18338;SDS011;9295;44.484;11.240;2023-12-04T07:50:19;15.20;;;10.83;;
18338;SDS011;9295;44.484;11.240;2023-12-04T07:52:47;15.63;;;9.90;;
18338;SDS011;9295;44.484;11.240;2023-12-04T07:55:16;17.50;;;10.37;;
18338;SDS011;9295;44.484;11.240;2023-12-04T07:57:46;11.43;;;8.20;;
18338;SDS011;9295;44.484;11.240;2023-12-04T08:00:15;15.40;;;7.00;;
18338;SDS011;9295;44.484;11.240;2023-12-04T08:02:45;10.83;;;6.50;;
18338;SDS011;9295;44.484;11.240;2023-12-04T08:05:14;21.83;;;7.33;;
18338;SDS011;9295;44.484;11.240;2023-12-04T08:07:43;12.40;;;6.40;;
18338;SDS011;9295;44.484;11.240;2023-12-04T08:10:11;14.23;;;6.93;;
18338;SDS011;9295;44.484;11.240;2023-12-04T08:12:43;12.40;;;6.57;;
18338;SDS011;9295;44.484;11.240;2023-12-04T08:15:14;16.53;;;7.30;;
18338;SDS011;9295;44.484;11.240;2023-12-04T08:17:42;12.87;;;7.30;;
18338;SDS011;9295;44.484;11.240;2023-12-04T08:20:11;15.70;;;7.80;;
18338;SDS011;9295;44.484;11.240;2023-12-04T08:22:50;13.60;;;7.03;;
18338;SDS011;9295;44.484;11.240;2023-12-04T08:25:18;10.50;;;6.53;;
18338;SDS011;9295;44.484;11.240;2023-12-04T08:27:48;12.47;;;6.30;;
18338;SDS011;9295;44.484;11.240;2023-12-04T08:30:18;16.23;;;5.90;;
18338;SDS011;9295;44.484;11.240;2023-12-04T08:32:47;14.10;;;7.67;;
18338;SDS011;9295;44.484;11.240;2023-12-04T08:35:15;13.60;;;7.00;;
18338;SDS011;9295;44.484;11.240;2023-12-04T08:37:44;12.57;;;6.73;;
18338;SDS011;9295;44.484;11.240;2023-12-04T08:40:15;11.27;;;6.50;;
18338;SDS011;9295;44.484;11.240;2023-12-04T08:42:44;9.90;;;5.57;;
18338;SDS011;9295;44.484;11.240;2023-12-04T08:45:14;16.53;;;7.10;;
18338;SDS011;9295;44.484;11.240;2023-12-04T08:47:45;12.30;;;6.80;;
18338;SDS011;9295;44.484;11.240;2023-12-04T08:50:15;12.27;;;6.97;;
18338;SDS011;9295;44.484;11.240;2023-12-04T08:52:46;12.00;;;6.73;;
18338;SDS011;9295;44.484;11.240;2023-12-04T08:55:15;12.27;;;7.10;;
18338;SDS011;9295;44.484;11.240;2023-12-04T08:57:43;10.90;;;6.90;;
18338;SDS011;9295;44.484;11.240;2023-12-04T09:00:12;16.93;;;8.30;;
18338;SDS011;9295;44.484;11.240;2023-12-04T09:02:43;15.73;;;7.00;;
18338;SDS011;9295;44.484;11.240;2023-12-04T09:05:20;12.87;;;7.37;;
18338;SDS011;9295;44.484;11.240;2023-12-04T09:07:49;24.10;;;8.07;;
18338;SDS011;9295;44.484;11.240;2023-12-04T09:10:37;14.07;;;8.23;;
18338;SDS011;9295;44.484;11.240;2023-12-04T09:13:26;17.07;;;9.10;;
18338;SDS011;9295;44.484;11.240;2023-12-04T09:15:57;21.20;;;9.10;;
18338;SDS011;9295;44.484;11.240;2023-12-04T09:18:25;14.53;;;8.23;;
18338;SDS011;9295;44.484;11.240;2023-12-04T09:20:54;16.80;;;9.47;;
18338;SDS011;9295;44.484;11.240;2023-12-04T09:23:22;20.30;;;8.40;;
18338;SDS011;9295;44.484;11.240;2023-12-04T09:25:52;19.60;;;9.60;;
18338;SDS011;9295;44.484;11.240;2023-12-04T09:28:21;23.00;;;10.90;;
18338;SDS011;9295;44.484;11.240;2023-12-04T09:30:50;19.70;;;10.90;;
18338;SDS011;9295;44.484;11.240;2023-12-04T09:33:20;22.77;;;13.80;;
18338;SDS011;9295;44.484;11.240;2023-12-04T09:35:51;27.33;;;14.07;;
18338;SDS011;9295;44.484;11.240;2023-12-04T09:38:19;26.00;;;13.40;;
18338;SDS011;9295;44.484;11.240;2023-12-04T09:40:51;21.30;;;12.60;;
18338;SDS011;9295;44.484;11.240;2023-12-04T09:43:23;22.40;;;13.03;;
18338;SDS011;9295;44.484;11.240;2023-12-04T09:45:56;27.33;;;15.20;;
18338;SDS011;9295;44.484;11.240;2023-12-04T09:48:26;24.27;;;14.80;;
18338;SDS011;9295;44.484;11.240;2023-12-04T09:50:55;29.33;;;14.93;;
18338;SDS011;9295;44.484;11.240;2023-12-04T09:53:26;19.93;;;12.57;;
18338;SDS011;9295;44.484;11.240;2023-12-04T09:55:56;25.17;;;11.57;;
18338;SDS011;9295;44.484;11.240;2023-12-04T09:58:27;17.70;;;9.73;;
18338;SDS011;9295;44.484;11.240;2023-12-04T10:00:57;15.10;;;8.80;;
18338;SDS011;9295;44.484;11.240;2023-12-04T10:03:29;23.00;;;12.10;;
18338;SDS011;9295;44.484;11.240;2023-12-04T10:05:59;17.60;;;9.40;;
18338;SDS011;9295;44.484;11.240;2023-12-04T10:08:28;15.37;;;7.97;;
18338;SDS011;9295;44.484;11.240;2023-12-04T10:10:57;26.97;;;9.50;;
18338;SDS011;9295;44.484;11.240;2023-12-04T10:13:27;23.10;;;10.17;;
18338;SDS011;9295;44.484;11.240;2023-12-04T10:16:26;22.67;;;11.50;;
18338;SDS011;9295;44.484;11.240;2023-12-04T10:21:57;23.43;;;13.13;;
18338;SDS011;9295;44.484;11.240;2023-12-04T10:24:27;31.43;;;15.60;;
18338;SDS011;9295;44.484;11.240;2023-12-04T10:26:58;21.43;;;11.30;;
18338;SDS011;9295;44.484;11.240;2023-12-04T10:29:27;20.83;;;10.43;;
18338;SDS011;9295;44.484;11.240;2023-12-04T10:31:58;21.83;;;10.57;;
18338;SDS011;9295;44.484;11.240;2023-12-04T10:34:31;21.10;;;10.13;;
18338;SDS011;9295;44.484;11.240;2023-12-04T10:37:02;25.63;;;12.07;;
18338;SDS011;9295;44.484;11.240;2023-12-04T10:39:33;17.40;;;10.63;;
18338;SDS011;9295;44.484;11.240;2023-12-04T10:42:25;17.10;;;8.50;;
18338;SDS011;9295;44.484;11.240;2023-12-04T10:44:55;15.57;;;8.73;;
18338;SDS011;9295;44.484;11.240;2023-12-04T10:47:24;28.23;;;10.60;;
18338;SDS011;9295;44.484;11.240;2023-12-04T10:49:56;25.90;;;10.40;;
18338;SDS011;9295;44.484;11.240;2023-12-04T10:52:31;20.97;;;12.10;;
18338;SDS011;9295;44.484;11.240;2023-12-04T10:55:03;23.43;;;12.57;;
18338;SDS011;9295;44.484;11.240;2023-12-04T10:57:36;31.10;;;15.43;;
18338;SDS011;9295;44.484;11.240;2023-12-04T11:00:07;26.97;;;16.20;;
18338;SDS011;9295;44.484;11.240;2023-12-04T11:02:39;27.57;;;16.97;;
18338;SDS011;9295;44.484;11.240;2023-12-04T11:05:16;27.73;;;17.17;;
18338;SDS011;9295;44.484;11.240;2023-12-04T11:07:50;30.80;;;17.60;;
18338;SDS011;9295;44.484;11.240;2023-12-04T11:10:41;31.20;;;18.40;;
18338;SDS011;9295;44.484;11.240;2023-12-04T11:13:15;34.07;;;20.40;;
18338;SDS011;9295;44.484;11.240;2023-12-04T11:15:48;40.37;;;21.23;;
18338;SDS011;9295;44.484;11.240;2023-12-04T11:18:24;42.60;;;22.73;;
18338;SDS011;9295;44.484;11.240;2023-12-04T11:20:58;45.60;;;22.47;;
18338;SDS011;9295;44.484;11.240;2023-12-04T11:23:31;54.43;;;23.07;;
18338;SDS011;9295;44.484;11.240;2023-12-04T11:26:01;44.30;;;21.90;;
18338;SDS011;9295;44.484;11.240;2023-12-04T11:28:32;40.50;;;21.43;;
18338;SDS011;9295;44.484;11.240;2023-12-04T11:31:03;49.30;;;21.33;;
18338;SDS011;9295;44.484;11.240;2023-12-04T11:33:34;38.00;;;20.40;;
18338;SDS011;9295;44.484;11.240;2023-12-04T11:36:09;29.23;;;17.97;;
18338;SDS011;9295;44.484;11.240;2023-12-04T11:38:43;31.40;;;18.27;;
18338;SDS011;9295;44.484;11.240;2023-12-04T11:41:16;30.43;;;17.00;;
18338;SDS011;9295;44.484;11.240;2023-12-04T11:43:51;34.17;;;17.80;;
18338;SDS011;9295;44.484;11.240;2023-12-04T11:46:25;29.83;;;18.07;;
18338;SDS011;9295;44.484;11.240;2023-12-04T11:52:08;37.60;;;19.80;;
18338;SDS011;9295;44.484;11.240;2023-12-04T11:57:25;46.97;;;20.00;;
18338;SDS011;9295;44.484;11.240;2023-12-04T12:00:09;38.73;;;20.13;;
18338;SDS011;9295;44.484;11.240;2023-12-04T12:02:44;33.47;;;18.27;;
18338;SDS011;9295;44.484;11.240;2023-12-04T12:05:35;29.10;;;18.07;;
18338;SDS011;9295;44.484;11.240;2023-12-04T12:08:08;38.83;;;18.67;;
18338;SDS011;9295;44.484;11.240;2023-12-04T12:10:41;38.63;;;18.20;;
18338;SDS011;9295;44.484;11.240;2023-12-04T12:13:11;34.23;;;18.73;;
18338;SDS011;9295;44.484;11.240;2023-12-04T12:15:40;38.70;;;19.60;;
18338;SDS011;9295;44.484;11.240;2023-12-04T12:18:09;29.60;;;16.93;;
18338;SDS011;9295;44.484;11.240;2023-12-04T12:20:45;29.00;;;18.10;;
18338;SDS011;9295;44.484;11.240;2023-12-04T12:23:17;35.27;;;18.67;;
18338;SDS011;9295;44.484;11.240;2023-12-04T12:25:46;32.67;;;18.63;;
18338;SDS011;9295;44.484;11.240;2023-12-04T12:28:17;27.50;;;16.73;;
18338;SDS011;9295;44.484;11.240;2023-12-04T12:30:46;35.93;;;18.20;;
18338;SDS011;9295;44.484;11.240;2023-12-04T12:33:15;30.37;;;17.93;;
18338;SDS011;9295;44.484;11.240;2023-12-04T12:35:44;34.20;;;18.33;;
18338;SDS011;9295;44.484;11.240;2023-12-04T12:38:27;34.33;;;18.60;;
18338;SDS011;9295;44.484;11.240;2023-12-04T12:40:57;30.10;;;17.90;;
18338;SDS011;9295;44.484;11.240;2023-12-04T12:43:27;34.30;;;18.07;;
18338;SDS011;9295;44.484;11.240;2023-12-04T12:45:56;31.60;;;16.80;;
18338;SDS011;9295;44.484;11.240;2023-12-04T12:48:26;27.57;;;16.30;;
18338;SDS011;9295;44.484;11.240;2023-12-04T12:50:58;29.70;;;17.57;;
18338;SDS011;9295;44.484;11.240;2023-12-04T12:53:28;23.90;;;16.10;;
18338;SDS011;9295;44.484;11.240;2023-12-04T12:55:59;25.97;;;16.50;;
18338;SDS011;9295;44.484;11.240;2023-12-04T12:58:31;31.77;;;17.10;;
18338;SDS011;9295;44.484;11.240;2023-12-04T13:01:01;27.73;;;14.97;;
18338;SDS011;9295;44.484;11.240;2023-12-04T13:03:35;34.03;;;16.87;;
18338;SDS011;9295;44.484;11.240;2023-12-04T13:06:04;31.40;;;17.90;;
18338;SDS011;9295;44.484;11.240;2023-12-04T13:08:36;29.33;;;18.00;;
18338;SDS011;9295;44.484;11.240;2023-12-04T13:11:05;29.80;;;18.23;;
18338;SDS011;9295;44.484;11.240;2023-12-04T13:13:34;34.43;;;18.03;;
18338;SDS011;9295;44.484;11.240;2023-12-04T13:16:06;34.13;;;19.90;;
18338;SDS011;9295;44.484;11.240;2023-12-04T13:18:35;32.50;;;19.20;;
18338;SDS011;9295;44.484;11.240;2023-12-04T13:21:05;31.10;;;18.37;;
18338;SDS011;9295;44.484;11.240;2023-12-04T13:23:38;31.70;;;18.80;;
18338;SDS011;9295;44.484;11.240;2023-12-04T13:26:07;29.30;;;18.37;;
18338;SDS011;9295;44.484;11.240;2023-12-04T13:28:37;33.60;;;18.07;;
18338;SDS011;9295;44.484;11.240;2023-12-04T13:31:10;29.37;;;18.97;;
18338;SDS011;9295;44.484;11.240;2023-12-04T13:33:39;29.70;;;17.77;;
18338;SDS011;9295;44.484;11.240;2023-12-04T13:36:09;31.70;;;17.07;;
18338;SDS011;9295;44.484;11.240;2023-12-04T13:38:40;34.60;;;18.73;;
18338;SDS011;9295;44.484;11.240;2023-12-04T13:41:08;31.13;;;16.93;;
18338;SDS011;9295;44.484;11.240;2023-12-04T13:44:03;32.77;;;18.63;;
18338;SDS011;9295;44.484;11.240;2023-12-04T13:46:31;31.27;;;19.07;;
18338;SDS011;9295;44.484;11.240;2023-12-04T13:49:00;32.17;;;19.07;;
18338;SDS011;9295;44.484;11.240;2023-12-04T13:51:36;29.93;;;16.87;;
18338;SDS011;9295;44.484;11.240;2023-12-04T13:54:08;30.63;;;16.97;;
18338;SDS011;9295;44.484;11.240;2023-12-04T13:56:48;27.47;;;16.90;;
18338;SDS011;9295;44.484;11.240;2023-12-04T13:59:20;25.03;;;17.00;;
18338;SDS011;9295;44.484;11.240;2023-12-04T14:01:49;28.13;;;18.20;;
18338;SDS011;9295;44.484;11.240;2023-12-04T14:04:20;26.97;;;15.90;;
18338;SDS011;9295;44.484;11.240;2023-12-04T14:06:50;25.87;;;17.50;;
18338;SDS011;9295;44.484;11.240;2023-12-04T14:09:21;27.53;;;16.10;;
18338;SDS011;9295;44.484;11.240;2023-12-04T14:11:50;29.33;;;16.43;;
18338;SDS011;9295;44.484;11.240;2023-12-04T14:14:19;30.50;;;18.00;;
18338;SDS011;9295;44.484;11.240;2023-12-04T14:16:48;29.87;;;17.37;;
18338;SDS011;9295;44.484;11.240;2023-12-04T14:19:17;30.30;;;16.63;;
18338;SDS011;9295;44.484;11.240;2023-12-04T14:21:52;29.93;;;19.00;;
18338;SDS011;9295;44.484;11.240;2023-12-04T14:24:22;26.67;;;17.37;;
18338;SDS011;9295;44.484;11.240;2023-12-04T14:26:50;32.20;;;20.27;;
18338;SDS011;9295;44.484;11.240;2023-12-04T14:29:20;35.23;;;20.30;;
18338;SDS011;9295;44.484;11.240;2023-12-04T14:31:51;29.70;;;19.73;;
18338;SDS011;9295;44.484;11.240;2023-12-04T14:34:23;33.23;;;18.50;;
18338;SDS011;9295;44.484;11.240;2023-12-04T14:36:52;28.33;;;17.80;;
18338;SDS011;9295;44.484;11.240;2023-12-04T14:39:23;31.23;;;19.90;;
18338;SDS011;9295;44.484;11.240;2023-12-04T14:41:54;29.07;;;18.50;;
18338;SDS011;9295;44.484;11.240;2023-12-04T14:44:23;32.07;;;19.93;;
18338;SDS011;9295;44.484;11.240;2023-12-04T14:46:51;31.47;;;19.10;;
18338;SDS011;9295;44.484;11.240;2023-12-04T14:49:20;29.47;;;18.70;;
18338;SDS011;9295;44.484;11.240;2023-12-04T14:51:48;33.83;;;18.93;;
18338;SDS011;9295;44.484;11.240;2023-12-04T14:54:17;31.67;;;18.97;;
18338;SDS011;9295;44.484;11.240;2023-12-04T14:57:05;33.27;;;19.73;;
18338;SDS011;9295;44.484;11.240;2023-12-04T14:59:52;31.13;;;19.67;;
18338;SDS011;9295;44.484;11.240;2023-12-04T15:02:40;31.43;;;20.80;;